createdAt,value
2018-12-19T00:00:24.412Z,24.52
2018-12-19T00:01:30.573Z,25.82
2018-12-19T00:02:36.422Z,24.72
2018-12-19T00:03:42.166Z,24.50
2018-12-19T00:04:47.863Z,24.25
2018-12-19T00:05:53.880Z,24.75
2018-12-19T00:06:57.709Z,29.67
2018-12-19T00:08:01.777Z,26.25
2018-12-19T00:09:07.349Z,24.45
2018-12-19T00:10:11.623Z,24.57
2018-12-19T00:11:15.363Z,30.12
2018-12-19T00:12:19.140Z,26.37
2018-12-19T00:13:23.056Z,27.93
2018-12-19T00:14:26.873Z,25.55
2018-12-19T00:15:30.837Z,25.12
2018-12-19T00:16:34.668Z,24.70
2018-12-19T00:17:38.471Z,24.02
2018-12-19T00:18:42.256Z,23.27
2018-12-19T00:19:46.006Z,23.52
2018-12-19T00:20:49.824Z,24.60
2018-12-19T00:21:54.574Z,23.05
2018-12-19T00:22:58.424Z,25.57
2018-12-19T00:24:02.231Z,29.92
2018-12-19T00:25:06.029Z,24.35
2018-12-19T00:26:11.763Z,25.80
2018-12-19T00:27:17.414Z,26.62
2018-12-19T00:28:23.095Z,24.70
2018-12-19T00:29:28.905Z,23.57
2018-12-19T00:30:34.661Z,25.15
2018-12-19T00:31:40.879Z,25.08
2018-12-19T00:32:46.638Z,24.57
2018-12-19T00:33:52.324Z,23.60
2018-12-19T00:34:56.021Z,24.77
2018-12-19T00:35:59.768Z,25.62
2018-12-19T00:37:03.501Z,24.00
2018-12-19T00:38:07.441Z,24.10
2018-12-19T00:39:11.246Z,25.40
2018-12-19T00:40:16.130Z,24.55
2018-12-19T00:41:20.040Z,23.07
2018-12-19T00:42:23.751Z,25.55
2018-12-19T00:43:28.655Z,25.60
2018-12-19T00:44:32.445Z,26.93
2018-12-19T00:45:36.205Z,23.30
2018-12-19T00:46:40.079Z,28.67
2018-12-19T00:47:43.759Z,23.00
2018-12-19T00:48:47.524Z,25.65
2018-12-19T00:49:51.306Z,26.87
2018-12-19T00:50:55.070Z,26.40
2018-12-19T00:51:58.808Z,23.95
2018-12-19T00:53:02.644Z,30.55
2018-12-19T00:54:06.377Z,24.98
2018-12-19T00:55:10.145Z,24.00
2018-12-19T00:56:13.972Z,23.40
2018-12-19T00:57:17.731Z,22.98
2018-12-19T00:58:21.501Z,24.30
2018-12-19T00:59:25.301Z,24.12
2018-12-19T01:00:29.106Z,24.18
2018-12-19T01:01:39.555Z,26.20
2018-12-19T01:02:43.970Z,25.92
2018-12-19T01:03:47.710Z,25.05
2018-12-19T01:04:52.589Z,25.95
2018-12-19T01:05:56.284Z,26.55
2018-12-19T01:07:00.053Z,25.97
2018-12-19T01:08:03.886Z,26.55
2018-12-19T01:09:08.320Z,24.72
2018-12-19T01:10:13.401Z,25.85
2018-12-19T01:11:17.194Z,23.15
2018-12-19T01:12:20.948Z,22.80
2018-12-19T01:13:24.693Z,24.55
2018-12-19T01:14:28.442Z,22.50
2018-12-19T01:15:32.153Z,23.77
2018-12-19T01:16:35.909Z,24.18
2018-12-19T01:17:39.691Z,23.15
2018-12-19T01:18:43.482Z,22.60
2018-12-19T01:19:47.283Z,23.90
2018-12-19T01:20:51.077Z,22.22
2018-12-19T01:21:55.846Z,22.17
2018-12-19T01:22:59.605Z,23.10
2018-12-19T01:24:03.452Z,24.37
2018-12-19T01:25:07.223Z,22.60
2018-12-19T01:26:10.980Z,23.67
2018-12-19T01:27:14.770Z,22.45
2018-12-19T01:28:18.514Z,25.02
2018-12-19T01:29:22.305Z,24.70
2018-12-19T01:30:26.044Z,23.67
2018-12-19T01:31:29.789Z,23.20
2018-12-19T01:32:33.632Z,22.05
2018-12-19T01:33:37.544Z,23.75
2018-12-19T01:34:41.346Z,22.75
2018-12-19T01:35:45.163Z,23.60
2018-12-19T01:36:49.004Z,27.73
2018-12-19T01:37:52.719Z,21.93
2018-12-19T01:38:56.584Z,23.65
2018-12-19T01:40:00.431Z,21.55
2018-12-19T01:41:04.209Z,20.90
2018-12-19T01:42:08.027Z,22.50
2018-12-19T01:43:11.789Z,23.25
2018-12-19T01:44:15.595Z,22.17
2018-12-19T01:45:19.610Z,21.68
2018-12-19T01:46:23.468Z,21.75
2018-12-19T01:47:27.233Z,21.17
2018-12-19T01:48:31.042Z,22.65
2018-12-19T01:49:34.830Z,20.65
2018-12-19T01:50:38.581Z,24.32
2018-12-19T01:51:42.795Z,21.20
2018-12-19T01:52:46.592Z,22.25
2018-12-19T01:53:50.440Z,21.93
2018-12-19T01:54:54.193Z,21.23
2018-12-19T01:55:58.022Z,22.00
2018-12-19T01:57:01.770Z,22.45
2018-12-19T01:58:05.814Z,22.20
2018-12-19T01:59:09.641Z,21.00
2018-12-19T02:00:13.403Z,21.65
2018-12-19T02:01:17.151Z,20.82
2018-12-19T02:02:20.973Z,21.23
2018-12-19T02:03:24.719Z,22.58
2018-12-19T02:04:28.506Z,20.88
2018-12-19T02:05:32.297Z,22.35
2018-12-19T02:06:36.014Z,20.23
2018-12-19T02:07:39.740Z,21.62
2018-12-19T02:08:43.522Z,22.20
2018-12-19T02:09:47.301Z,21.35
2018-12-19T02:10:51.458Z,22.65
2018-12-19T02:11:55.206Z,21.20
2018-12-19T02:12:58.907Z,21.60
2018-12-19T02:14:03.106Z,20.57
2018-12-19T02:15:06.907Z,21.93
2018-12-19T02:16:10.705Z,21.55
2018-12-19T02:17:14.470Z,21.30
2018-12-19T02:18:18.220Z,21.82
2018-12-19T02:19:22.052Z,20.90
2018-12-19T02:20:25.773Z,20.27
2018-12-19T02:21:29.483Z,21.42
2018-12-19T02:22:33.502Z,22.62
2018-12-19T02:23:37.241Z,19.77
2018-12-19T02:24:40.989Z,21.82
2018-12-19T02:25:44.777Z,20.17
2018-12-19T02:26:48.553Z,20.25
2018-12-19T02:27:52.403Z,19.98
2018-12-19T02:28:56.200Z,19.70
2018-12-19T02:30:00.025Z,20.60
2018-12-19T02:31:05.413Z,20.40
2018-12-19T02:32:09.403Z,19.60
2018-12-19T02:33:13.274Z,20.80
2018-12-19T02:34:17.103Z,20.23
2018-12-19T02:35:21.089Z,20.75
2018-12-19T02:36:24.862Z,20.68
2018-12-19T02:37:28.805Z,19.30
2018-12-19T02:38:32.471Z,20.12
2018-12-19T02:39:36.514Z,20.05
2018-12-19T02:40:40.345Z,20.17
2018-12-19T02:41:44.163Z,21.02
2018-12-19T02:42:47.941Z,19.00
2018-12-19T02:43:51.742Z,20.12
2018-12-19T02:44:55.472Z,19.12
2018-12-19T02:45:59.203Z,20.15
2018-12-19T02:47:02.937Z,18.95
2018-12-19T02:48:06.760Z,19.00
2018-12-19T02:49:10.544Z,18.60
2018-12-19T02:50:14.365Z,17.95
2018-12-19T02:51:18.076Z,19.37
2018-12-19T02:52:21.889Z,19.70
2018-12-19T02:53:25.522Z,18.23
2018-12-19T02:54:29.249Z,18.87
2018-12-19T02:55:33.131Z,19.12
2018-12-19T02:56:36.857Z,18.92
2018-12-19T02:57:40.679Z,19.82
2018-12-19T02:58:44.412Z,19.42
2018-12-19T02:59:48.214Z,19.05
2018-12-19T03:00:53.038Z,17.90
2018-12-19T03:01:56.725Z,19.40
2018-12-19T03:03:00.481Z,19.20
2018-12-19T03:04:04.278Z,18.90
2018-12-19T03:05:08.095Z,17.67
2018-12-19T03:06:12.111Z,18.62
2018-12-19T03:07:15.867Z,18.35
2018-12-19T03:08:19.719Z,18.55
2018-12-19T03:09:23.424Z,17.42
2018-12-19T03:10:27.201Z,18.73
2018-12-19T03:11:30.946Z,18.40
2018-12-19T03:12:34.682Z,18.12
2018-12-19T03:13:38.492Z,19.15
2018-12-19T03:14:42.282Z,18.25
2018-12-19T03:15:46.144Z,18.77
2018-12-19T03:16:49.949Z,17.82
2018-12-19T03:17:53.705Z,17.70
2018-12-19T03:18:57.417Z,18.92
2018-12-19T03:20:01.160Z,18.00
2018-12-19T03:21:04.944Z,17.65
2018-12-19T03:22:08.708Z,18.60
2018-12-19T03:23:12.447Z,17.48
2018-12-19T03:24:16.210Z,17.70
2018-12-19T03:25:19.982Z,17.60
2018-12-19T03:26:23.721Z,17.37
2018-12-19T03:27:27.571Z,17.92
2018-12-19T03:28:31.362Z,16.80
2018-12-19T03:29:35.119Z,17.73
2018-12-19T03:30:38.799Z,16.62
2018-12-19T03:31:42.588Z,17.20
2018-12-19T03:32:46.351Z,17.57
2018-12-19T03:33:50.111Z,17.45
2018-12-19T03:34:54.667Z,16.85
2018-12-19T03:36:00.244Z,17.67
2018-12-19T03:37:04.142Z,17.62
2018-12-19T03:38:07.963Z,17.07
2018-12-19T03:39:11.708Z,17.77
2018-12-19T03:40:15.488Z,18.98
2018-12-19T03:41:19.274Z,18.50
2018-12-19T03:42:23.143Z,18.30
2018-12-19T03:43:26.859Z,17.42
2018-12-19T03:44:30.610Z,18.10
2018-12-19T03:45:34.466Z,17.95
2018-12-19T03:46:38.196Z,17.35
2018-12-19T03:47:41.951Z,16.80
2018-12-19T03:49:03.485Z,17.42
2018-12-19T03:50:07.508Z,17.30
2018-12-19T03:51:11.254Z,16.93
2018-12-19T03:52:15.052Z,17.67
2018-12-19T03:53:18.864Z,17.37
2018-12-19T03:54:22.769Z,17.92
2018-12-19T03:55:26.509Z,17.50
2018-12-19T03:56:30.339Z,17.50
2018-12-19T03:57:34.308Z,16.27
2018-12-19T03:58:38.008Z,17.92
2018-12-19T03:59:42.247Z,18.27
2018-12-19T04:00:45.984Z,17.52
2018-12-19T04:01:49.766Z,17.60
2018-12-19T04:02:53.566Z,17.15
2018-12-19T04:03:57.377Z,18.57
2018-12-19T04:05:01.237Z,17.57
2018-12-19T04:06:05.136Z,18.12
2018-12-19T04:07:08.919Z,18.87
2018-12-19T04:08:12.669Z,17.12
2018-12-19T04:09:16.432Z,17.32
2018-12-19T04:10:20.189Z,18.55
2018-12-19T04:11:23.921Z,17.45
2018-12-19T04:12:27.682Z,18.45
2018-12-19T04:13:31.471Z,18.25
2018-12-19T04:14:35.290Z,18.35
2018-12-19T04:15:38.949Z,18.07
2018-12-19T04:16:42.746Z,18.40
2018-12-19T04:17:46.456Z,16.97
2018-12-19T04:18:50.342Z,17.70
2018-12-19T04:21:06.340Z,17.60
2018-12-19T04:22:10.134Z,19.25
2018-12-19T04:23:13.880Z,17.10
2018-12-19T04:24:17.609Z,18.37
2018-12-19T04:25:21.378Z,17.90
2018-12-19T04:26:25.410Z,18.15
2018-12-19T04:27:29.117Z,18.37
2018-12-19T04:28:33.235Z,17.25
2018-12-19T04:29:37.273Z,18.65
2018-12-19T04:30:47.721Z,18.32
2018-12-19T04:31:51.522Z,17.15
2018-12-19T04:32:55.376Z,16.52
2018-12-19T04:33:59.104Z,17.92
2018-12-19T04:35:03.939Z,18.55
2018-12-19T04:36:07.677Z,19.15
2018-12-19T04:37:11.495Z,18.42
2018-12-19T04:38:15.320Z,18.87
2018-12-19T04:39:19.096Z,18.10
2018-12-19T04:40:22.813Z,19.48
2018-12-19T04:41:26.641Z,18.07
2018-12-19T04:42:30.481Z,19.80
2018-12-19T04:43:34.271Z,18.50
2018-12-19T04:44:37.969Z,17.45
2018-12-19T04:45:41.861Z,18.32
2018-12-19T04:46:45.666Z,19.50
2018-12-19T04:47:50.504Z,17.57
2018-12-19T04:48:54.257Z,18.15
2018-12-19T04:49:58.040Z,17.60
2018-12-19T04:51:01.799Z,18.52
2018-12-19T04:52:05.518Z,18.85
2018-12-19T04:53:09.333Z,18.85
2018-12-19T04:54:13.273Z,18.62
2018-12-19T04:55:17.053Z,18.25
2018-12-19T04:56:20.898Z,18.50
2018-12-19T04:57:24.649Z,18.30
2018-12-19T04:58:28.383Z,18.48
2018-12-19T04:59:32.084Z,18.35
2018-12-19T05:00:36.589Z,19.00
2018-12-19T05:01:40.716Z,16.87
2018-12-19T05:02:45.080Z,19.17
2018-12-19T05:03:48.953Z,18.25
2018-12-19T05:04:52.698Z,18.65
2018-12-19T05:05:56.424Z,17.70
2018-12-19T05:07:00.190Z,19.67
2018-12-19T05:08:04.109Z,18.70
2018-12-19T05:09:08.337Z,22.07
2018-12-19T05:10:12.581Z,17.12
2018-12-19T05:11:16.588Z,18.45
2018-12-19T05:12:20.342Z,19.17
2018-12-19T05:13:24.087Z,17.57
2018-12-19T05:14:27.952Z,18.57
2018-12-19T05:15:31.709Z,19.92
2018-12-19T05:16:35.516Z,17.77
2018-12-19T05:17:39.278Z,18.17
2018-12-19T05:18:42.975Z,19.50
2018-12-19T05:19:46.899Z,17.50
2018-12-19T05:20:50.745Z,18.25
2018-12-19T05:21:54.635Z,18.12
2018-12-19T05:22:58.407Z,19.00
2018-12-19T05:24:02.165Z,18.27
2018-12-19T05:25:08.562Z,19.75
2018-12-19T05:26:12.436Z,17.92
2018-12-19T05:27:16.221Z,19.42
2018-12-19T05:28:20.003Z,18.02
2018-12-19T05:29:23.637Z,16.80
2018-12-19T05:30:27.527Z,17.75
2018-12-19T05:31:31.327Z,16.90
2018-12-19T05:32:35.100Z,16.80
2018-12-19T05:33:38.928Z,17.15
2018-12-19T05:34:42.765Z,16.73
2018-12-19T05:35:46.544Z,18.70
2018-12-19T05:36:50.377Z,17.60
2018-12-19T05:37:54.155Z,17.90
2018-12-19T05:38:57.951Z,17.37
2018-12-19T05:40:01.788Z,16.48
2018-12-19T05:41:05.503Z,16.05
2018-12-19T05:42:09.303Z,17.45
2018-12-19T05:43:13.164Z,17.50
2018-12-19T05:44:16.877Z,16.62
2018-12-19T05:45:20.706Z,17.45
2018-12-19T05:46:24.443Z,15.90
2018-12-19T05:47:28.437Z,17.30
2018-12-19T05:48:32.237Z,16.75
2018-12-19T05:50:49.556Z,16.75
2018-12-19T05:51:53.641Z,16.27
2018-12-19T05:52:57.384Z,16.27
2018-12-19T05:54:01.227Z,16.37
2018-12-19T05:55:05.667Z,15.75
2018-12-19T05:56:09.411Z,20.45
2018-12-19T05:57:13.327Z,17.65
2018-12-19T05:58:17.101Z,16.48
2018-12-19T05:59:23.730Z,17.52
2018-12-19T06:00:27.610Z,16.87
2018-12-19T06:01:33.356Z,16.85
2018-12-19T06:02:39.047Z,16.45
2018-12-19T06:03:42.866Z,17.20
2018-12-19T06:04:46.566Z,16.97
2018-12-19T06:05:50.346Z,16.25
2018-12-19T06:06:54.106Z,16.67
2018-12-19T06:07:57.919Z,16.73
2018-12-19T06:09:01.720Z,16.80
2018-12-19T06:10:05.509Z,17.60
2018-12-19T06:11:09.257Z,17.42
2018-12-19T06:12:13.004Z,16.87
2018-12-19T06:13:16.896Z,18.35
2018-12-19T06:14:20.670Z,17.12
2018-12-19T06:15:24.424Z,17.77
2018-12-19T06:16:28.181Z,16.87
2018-12-19T06:17:32.015Z,17.67
2018-12-19T06:18:35.746Z,16.57
2018-12-19T06:19:39.494Z,17.40
2018-12-19T06:20:43.299Z,17.37
2018-12-19T06:21:47.033Z,18.12
2018-12-19T06:22:50.862Z,17.52
2018-12-19T06:23:55.280Z,18.55
2018-12-19T06:24:59.055Z,17.07
2018-12-19T06:26:03.836Z,17.80
2018-12-19T06:27:09.585Z,17.82
2018-12-19T06:28:15.349Z,18.12
2018-12-19T06:29:19.112Z,18.48
2018-12-19T06:30:23.034Z,19.48
2018-12-19T06:31:26.887Z,18.20
2018-12-19T06:32:30.602Z,19.12
2018-12-19T06:33:35.342Z,18.10
2018-12-19T06:34:39.122Z,19.32
2018-12-19T06:35:42.892Z,19.25
2018-12-19T06:36:46.573Z,19.40
2018-12-19T06:37:50.335Z,18.50
2018-12-19T06:38:54.135Z,19.23
2018-12-19T06:39:57.910Z,18.15
2018-12-19T06:41:01.722Z,18.60
2018-12-19T06:42:05.554Z,18.20
2018-12-19T06:43:09.303Z,18.30
2018-12-19T06:44:13.009Z,16.93
2018-12-19T06:45:16.878Z,18.30
2018-12-19T06:46:20.606Z,19.05
2018-12-19T06:47:24.367Z,17.98
2018-12-19T06:48:28.110Z,18.62
2018-12-19T06:49:31.915Z,19.00
2018-12-19T06:50:35.735Z,19.10
2018-12-19T06:51:39.512Z,18.57
2018-12-19T06:52:43.302Z,18.50
2018-12-19T06:53:47.082Z,18.50
2018-12-19T06:54:50.940Z,17.45
2018-12-19T06:55:54.884Z,18.50
2018-12-19T06:56:58.627Z,17.73
2018-12-19T06:58:02.411Z,17.02
2018-12-19T06:59:06.132Z,16.65
2018-12-19T07:00:09.913Z,17.60
2018-12-19T07:01:13.797Z,17.85
2018-12-19T07:02:17.577Z,18.65
2018-12-19T07:03:21.384Z,17.77
2018-12-19T07:04:25.256Z,17.90
2018-12-19T07:05:30.103Z,17.70
2018-12-19T07:06:33.960Z,17.90
2018-12-19T07:07:37.721Z,16.82
2018-12-19T07:08:41.585Z,17.92
2018-12-19T07:09:45.420Z,18.30
2018-12-19T07:10:49.172Z,17.20
2018-12-19T07:11:52.930Z,18.40
2018-12-19T07:12:56.735Z,18.12
2018-12-19T07:14:00.561Z,18.87
2018-12-19T07:15:04.848Z,18.62
2018-12-19T07:16:08.613Z,18.35
2018-12-19T07:17:12.986Z,17.25
2018-12-19T07:18:16.756Z,18.60
2018-12-19T07:19:20.539Z,19.27
2018-12-19T07:20:24.294Z,18.00
2018-12-19T07:21:28.125Z,17.12
2018-12-19T07:22:31.919Z,18.30
2018-12-19T07:23:35.706Z,17.65
2018-12-19T07:24:39.391Z,17.07
2018-12-19T07:25:43.270Z,18.17
2018-12-19T07:26:46.964Z,17.55
2018-12-19T07:27:50.782Z,17.42
2018-12-19T07:28:54.565Z,17.35
2018-12-19T07:29:58.329Z,17.17
2018-12-19T07:31:02.123Z,18.48
2018-12-19T07:32:05.899Z,18.12
2018-12-19T07:33:10.139Z,18.30
2018-12-19T07:34:13.906Z,16.95
2018-12-19T07:35:17.644Z,17.60
2018-12-19T07:36:21.402Z,17.67
2018-12-19T07:37:25.172Z,18.50
2018-12-19T07:38:28.950Z,18.30
2018-12-19T07:39:32.731Z,17.98
2018-12-19T07:40:36.554Z,17.35
2018-12-19T07:41:40.367Z,17.45
2018-12-19T07:42:44.085Z,18.32
2018-12-19T07:43:47.828Z,17.67
2018-12-19T07:44:51.562Z,17.37
2018-12-19T07:45:55.282Z,17.85
2018-12-19T07:46:59.153Z,18.25
2018-12-19T07:48:02.910Z,18.00
2018-12-19T07:49:06.679Z,16.93
2018-12-19T07:50:10.454Z,17.67
2018-12-19T07:51:14.309Z,18.10
2018-12-19T07:52:18.095Z,17.80
2018-12-19T07:53:21.890Z,18.17
2018-12-19T07:54:25.744Z,17.00
2018-12-19T07:55:32.867Z,17.95
2018-12-19T07:56:36.739Z,18.10
2018-12-19T07:57:40.424Z,18.32
2018-12-19T07:58:44.149Z,16.50
2018-12-19T07:59:48.126Z,17.95
2018-12-19T08:00:51.838Z,19.40
2018-12-19T08:01:55.603Z,18.02
2018-12-19T08:02:59.411Z,17.35
2018-12-19T08:04:03.146Z,18.40
2018-12-19T08:05:07.178Z,17.80
2018-12-19T08:06:11.032Z,18.10
2018-12-19T08:07:14.935Z,17.87
2018-12-19T08:08:18.733Z,18.80
2018-12-19T08:09:22.508Z,18.07
2018-12-19T08:10:26.320Z,18.15
2018-12-19T08:11:29.997Z,18.00
2018-12-19T08:12:36.212Z,16.55
2018-12-19T08:13:39.480Z,16.45
2018-12-19T08:14:43.221Z,20.35
2018-12-19T08:15:47.200Z,18.17
2018-12-19T08:16:51.078Z,18.48
2018-12-19T08:17:54.829Z,19.00
2018-12-19T08:18:58.514Z,19.37
2018-12-19T08:20:02.236Z,20.92
2018-12-19T08:21:05.987Z,18.45
2018-12-19T08:22:09.778Z,18.25
2018-12-19T08:23:13.542Z,17.77
2018-12-19T08:24:17.338Z,19.45
2018-12-19T08:25:21.216Z,21.45
2018-12-19T08:26:24.973Z,18.73
2018-12-19T08:27:28.782Z,19.40
2018-12-19T08:28:32.641Z,18.50
2018-12-19T08:29:36.414Z,19.00
2018-12-19T08:30:40.220Z,19.00
2018-12-19T08:31:43.992Z,18.32
2018-12-19T08:32:47.880Z,21.90
2018-12-19T08:33:51.622Z,20.50
2018-12-19T08:34:55.371Z,17.27
2018-12-19T08:35:59.122Z,16.82
2018-12-19T08:37:02.939Z,18.75
2018-12-19T08:38:06.714Z,18.07
2018-12-19T08:39:10.782Z,17.90
2018-12-19T08:40:14.572Z,17.37
2018-12-19T08:41:18.375Z,18.37
2018-12-19T08:42:22.194Z,18.15
2018-12-19T08:43:25.997Z,17.95
2018-12-19T08:44:29.943Z,17.70
2018-12-19T08:45:33.821Z,16.70
2018-12-19T08:46:37.552Z,17.40
2018-12-19T08:47:41.368Z,17.30
2018-12-19T08:48:45.235Z,18.10
2018-12-19T08:49:48.959Z,17.35
2018-12-19T08:50:52.739Z,16.95
2018-12-19T08:51:56.456Z,18.12
2018-12-19T08:53:00.351Z,18.55
2018-12-19T08:54:04.063Z,16.82
2018-12-19T08:55:07.884Z,18.80
2018-12-19T08:56:11.693Z,20.82
2018-12-19T08:57:15.511Z,18.50
2018-12-19T08:58:19.283Z,18.30
2018-12-19T08:59:23.044Z,16.12
2018-12-19T09:00:26.880Z,17.60
2018-12-19T09:01:30.688Z,18.15
2018-12-19T09:02:34.485Z,18.45
2018-12-19T09:03:38.238Z,17.07
2018-12-19T09:04:42.012Z,19.20
2018-12-19T09:05:45.856Z,17.87
2018-12-19T09:06:49.624Z,18.40
2018-12-19T09:07:53.311Z,16.97
2018-12-19T09:08:57.590Z,17.20
2018-12-19T09:10:01.399Z,16.67
2018-12-19T09:11:05.905Z,16.70
2018-12-19T09:12:09.871Z,17.07
2018-12-19T09:13:13.616Z,16.45
2018-12-19T09:14:17.450Z,17.55
2018-12-19T09:15:27.741Z,17.02
2018-12-19T09:16:31.956Z,16.70
2018-12-19T09:17:35.897Z,16.85
2018-12-19T09:18:39.786Z,16.12
2018-12-19T09:19:43.784Z,16.00
2018-12-19T09:20:47.777Z,16.35
2018-12-19T09:21:51.581Z,16.93
2018-12-19T09:22:55.319Z,16.40
2018-12-19T09:23:59.046Z,19.10
2018-12-19T09:25:02.868Z,17.82
2018-12-19T09:26:06.659Z,15.38
2018-12-19T09:27:10.511Z,16.27
2018-12-19T09:28:14.245Z,17.17
2018-12-19T09:29:18.020Z,17.02
2018-12-19T09:30:21.821Z,16.95
2018-12-19T09:31:25.571Z,15.78
2018-12-19T09:32:35.674Z,16.52
2018-12-19T09:33:39.421Z,16.23
2018-12-19T09:34:43.226Z,15.43
2018-12-19T09:35:46.981Z,16.93
2018-12-19T09:36:51.183Z,17.12
2018-12-19T09:37:54.939Z,15.15
2018-12-19T09:38:58.670Z,15.55
2018-12-19T09:40:02.547Z,16.77
2018-12-19T09:41:12.104Z,15.38
2018-12-19T09:42:13.242Z,15.60
2018-12-19T09:43:16.998Z,16.23
2018-12-19T09:44:20.935Z,16.07
2018-12-19T09:45:24.733Z,16.15
2018-12-19T09:46:28.688Z,16.27
2018-12-19T09:47:32.658Z,17.10
2018-12-19T09:48:36.750Z,16.45
2018-12-19T09:49:40.609Z,15.78
2018-12-19T09:50:44.383Z,16.30
2018-12-19T09:51:48.546Z,15.98
2018-12-19T09:52:52.395Z,16.10
2018-12-19T09:53:56.343Z,15.75
2018-12-19T09:55:00.293Z,15.75
2018-12-19T09:56:05.539Z,15.28
2018-12-19T09:57:09.475Z,16.25
2018-12-19T09:58:13.502Z,16.00
2018-12-19T09:59:17.309Z,16.15
2018-12-19T10:00:27.597Z,15.60
2018-12-19T10:01:32.006Z,15.35
2018-12-19T10:02:35.800Z,16.75
2018-12-19T10:03:39.667Z,15.23
2018-12-19T10:04:43.455Z,14.55
2018-12-19T10:05:47.423Z,16.17
2018-12-19T10:06:51.521Z,17.95
2018-12-19T10:07:55.378Z,17.02
2018-12-19T10:08:59.542Z,15.78
2018-12-19T10:10:03.284Z,15.03
2018-12-19T10:11:07.030Z,15.50
2018-12-19T10:12:10.980Z,18.95
2018-12-19T10:13:14.765Z,16.65
2018-12-19T10:14:18.665Z,17.37
2018-12-19T10:15:22.442Z,14.33
2018-12-19T10:16:26.315Z,15.70
2018-12-19T10:17:30.047Z,16.80
2018-12-19T10:18:33.908Z,15.95
2018-12-19T10:19:37.750Z,15.50
2018-12-19T10:20:41.596Z,15.95
2018-12-19T10:21:45.443Z,15.15
2018-12-19T10:22:51.366Z,15.30
2018-12-19T10:23:55.310Z,16.20
2018-12-19T10:25:04.545Z,14.47
2018-12-19T10:26:14.234Z,15.18
2018-12-19T10:27:22.010Z,15.28
2018-12-19T10:28:31.594Z,16.27
2018-12-19T10:29:35.586Z,15.93
2018-12-19T10:30:44.891Z,14.78
2018-12-19T10:31:48.653Z,16.30
2018-12-19T10:32:55.775Z,16.10
2018-12-19T10:33:59.538Z,14.95
2018-12-19T10:35:03.578Z,15.50
2018-12-19T10:36:07.400Z,15.28
2018-12-19T10:37:12.602Z,15.03
2018-12-19T10:38:16.644Z,15.35
2018-12-19T10:39:20.486Z,15.68
2018-12-19T10:40:24.407Z,14.00
2018-12-19T10:41:28.157Z,16.30
2018-12-19T10:42:31.969Z,15.03
2018-12-19T10:43:35.681Z,15.32
2018-12-19T10:44:46.271Z,14.35
2018-12-19T10:45:50.017Z,14.45
2018-12-19T10:46:53.763Z,14.40
2018-12-19T10:47:57.565Z,13.65
2018-12-19T10:49:01.411Z,13.88
2018-12-19T10:50:07.228Z,14.83
2018-12-19T10:51:10.933Z,14.23
2018-12-19T10:52:14.746Z,14.73
2018-12-19T10:53:18.560Z,14.40
2018-12-19T10:54:22.351Z,14.40
2018-12-19T10:55:26.078Z,13.60
2018-12-19T10:56:29.882Z,13.40
2018-12-19T10:57:33.705Z,14.95
2018-12-19T10:58:37.614Z,13.50
2018-12-19T10:59:41.378Z,14.03
2018-12-19T11:00:50.659Z,15.10
2018-12-19T11:01:54.525Z,19.00
2018-12-19T11:03:00.523Z,14.90
2018-12-19T11:04:04.613Z,16.85
2018-12-19T11:05:08.359Z,15.75
2018-12-19T11:06:12.423Z,14.43
2018-12-19T11:07:16.244Z,14.25
2018-12-19T11:08:20.268Z,15.95
2018-12-19T11:09:24.149Z,15.18
2018-12-19T11:10:28.040Z,15.55
2018-12-19T11:11:32.553Z,14.40
2018-12-19T11:12:36.415Z,14.80
2018-12-19T11:13:40.206Z,18.15
2018-12-19T11:14:43.950Z,15.35
2018-12-19T11:15:47.795Z,14.38
2018-12-19T11:16:51.498Z,14.85
2018-12-19T11:17:55.284Z,14.35
2018-12-19T11:18:59.279Z,14.20
2018-12-19T11:20:03.216Z,13.88
2018-12-19T11:21:07.091Z,13.05
2018-12-19T11:22:12.842Z,14.05
2018-12-19T11:23:17.934Z,13.90
2018-12-19T11:24:22.941Z,13.50
2018-12-19T11:25:26.710Z,14.43
2018-12-19T11:26:30.649Z,14.47
2018-12-19T11:27:34.447Z,13.13
2018-12-19T11:28:38.224Z,13.80
2018-12-19T11:29:41.991Z,14.05
2018-12-19T11:30:45.740Z,14.25
2018-12-19T11:31:49.781Z,13.25
2018-12-19T11:32:53.542Z,13.60
2018-12-19T11:33:57.305Z,15.18
2018-12-19T11:35:01.142Z,15.98
2018-12-19T11:36:04.994Z,15.88
2018-12-19T11:37:08.747Z,14.83
2018-12-19T11:38:13.209Z,15.72
2018-12-19T11:39:17.067Z,18.45
2018-12-19T11:40:21.684Z,16.12
2018-12-19T11:41:25.578Z,15.93
2018-12-19T11:42:29.436Z,13.90
2018-12-19T11:43:33.468Z,14.38
2018-12-19T11:44:38.199Z,15.65
2018-12-19T11:45:42.084Z,14.20
2018-12-19T11:46:45.861Z,13.35
2018-12-19T11:47:50.280Z,13.43
2018-12-19T11:48:54.033Z,13.13
2018-12-19T11:49:57.807Z,13.65
2018-12-19T11:51:01.910Z,13.70
2018-12-19T11:52:06.742Z,12.93
2018-12-19T11:53:10.487Z,13.48
2018-12-19T11:54:15.322Z,13.20
2018-12-19T11:55:19.113Z,14.38
2018-12-19T11:56:22.866Z,14.65
2018-12-19T11:57:26.633Z,13.75
2018-12-19T11:58:30.461Z,14.50
2018-12-19T11:59:34.322Z,12.82
2018-12-19T12:00:38.216Z,13.50
2018-12-19T12:01:42.076Z,12.60
2018-12-19T12:02:46.319Z,13.58
2018-12-19T12:03:50.109Z,12.90
2018-12-19T12:04:56.809Z,13.43
2018-12-19T12:06:02.707Z,13.20
2018-12-19T12:07:06.981Z,12.50
2018-12-19T12:08:10.718Z,13.25
2018-12-19T12:09:14.517Z,12.78
2018-12-19T12:10:18.292Z,13.48
2018-12-19T12:11:22.477Z,14.25
2018-12-19T12:12:26.217Z,13.32
2018-12-19T12:13:29.994Z,13.20
2018-12-19T12:14:33.769Z,14.35
2018-12-19T12:15:37.538Z,13.95
2018-12-19T12:16:41.702Z,13.68
2018-12-19T12:17:45.829Z,13.62
2018-12-19T12:18:49.799Z,13.85
2018-12-19T12:19:53.815Z,13.85
2018-12-19T12:20:57.613Z,12.90
2018-12-19T12:22:01.439Z,13.25
2018-12-19T12:23:05.285Z,13.50
2018-12-19T12:24:09.076Z,13.13
2018-12-19T12:25:12.887Z,13.83
2018-12-19T12:26:16.650Z,13.60
2018-12-19T12:27:20.460Z,12.55
2018-12-19T12:28:24.278Z,12.63
2018-12-19T12:29:28.052Z,13.75
2018-12-19T12:30:31.863Z,13.28
2018-12-19T12:31:36.798Z,12.70
2018-12-19T12:32:40.646Z,14.10
2018-12-19T12:33:44.515Z,13.93
2018-12-19T12:34:48.364Z,13.60
2018-12-19T12:35:52.241Z,12.70
2018-12-19T12:36:56.132Z,12.30
2018-12-19T12:37:59.868Z,13.80
2018-12-19T12:39:05.951Z,13.50
2018-12-19T12:40:09.896Z,12.20
2018-12-19T12:41:15.202Z,13.60
2018-12-19T12:42:21.742Z,12.53
2018-12-19T12:43:33.736Z,13.48
2018-12-19T12:44:37.719Z,13.70
2018-12-19T12:45:41.951Z,13.62
2018-12-19T12:46:57.130Z,13.70
2018-12-19T12:48:01.456Z,13.80
2018-12-19T12:49:05.288Z,12.53
2018-12-19T12:50:09.074Z,13.43
2018-12-19T12:51:12.879Z,13.00
2018-12-19T12:52:16.651Z,13.78
2018-12-19T12:53:20.398Z,13.90
2018-12-19T12:54:24.084Z,13.35
2018-12-19T12:55:27.875Z,13.60
2018-12-19T12:56:31.627Z,13.28
2018-12-19T12:57:37.743Z,13.50
2018-12-19T12:58:41.469Z,12.43
2018-12-19T12:59:45.294Z,13.95
2018-12-19T13:00:49.240Z,13.35
2018-12-19T13:01:53.002Z,13.95
2018-12-19T13:02:56.799Z,13.83
2018-12-19T13:04:01.021Z,13.20
2018-12-19T13:05:04.882Z,13.68
2018-12-19T13:06:09.087Z,14.25
2018-12-19T13:07:12.847Z,13.85
2018-12-19T13:08:16.619Z,13.20
2018-12-19T13:09:20.458Z,14.40
2018-12-19T13:10:24.375Z,15.15
2018-12-19T13:11:28.112Z,14.13
2018-12-19T13:12:31.987Z,13.25
2018-12-19T13:13:35.719Z,12.68
2018-12-19T13:14:39.633Z,13.03
2018-12-19T13:15:47.414Z,12.75
2018-12-19T13:16:51.159Z,13.85
2018-12-19T13:17:55.069Z,12.85
2018-12-19T13:19:00.189Z,15.40
2018-12-19T13:20:05.430Z,14.73
2018-12-19T13:21:09.300Z,13.68
2018-12-19T13:22:13.227Z,14.18
2018-12-19T13:23:17.369Z,13.68
2018-12-19T13:24:21.306Z,12.40
2018-12-19T13:25:25.105Z,13.58
2018-12-19T13:26:28.961Z,13.45
2018-12-19T13:27:32.812Z,14.95
2018-12-19T13:28:36.707Z,13.00
2018-12-19T13:29:40.791Z,13.00
2018-12-19T13:30:44.651Z,13.55
2018-12-19T13:31:48.515Z,13.40
2018-12-19T13:32:52.254Z,12.78
2018-12-19T13:33:56.058Z,13.72
2018-12-19T13:34:59.829Z,13.32
2018-12-19T13:36:04.789Z,13.00
2018-12-19T13:37:08.784Z,14.38
2018-12-19T13:39:28.008Z,13.15
2018-12-19T13:40:31.776Z,13.13
2018-12-19T13:41:35.644Z,13.62
2018-12-19T13:42:39.430Z,14.35
2018-12-19T13:43:43.385Z,12.30
2018-12-19T13:44:47.102Z,12.13
2018-12-19T13:45:50.887Z,12.95
2018-12-19T13:46:54.821Z,12.30
2018-12-19T13:47:58.627Z,12.55
2018-12-19T13:49:02.478Z,12.53